Time;durP1;ratioP1;P1;durP2;ratioP2;P2;SDS_P1;SDS_P2;PMS_P1;PMS_P2;Temp;Humidity;BMP_temperature;BMP_pressure;BME280_temperature;BME280_humidity;BME280_pressure;Samples;Min_cycle;Max_cycle;Signal;HPM_P1;HPM_P2
2022/12/28 00:01:27;;;;;;;8.48;4.53;;;6.90;42.70;;;;;;4993485;28;20215;-50
2022/12/28 00:03:54;;;;;;;9.25;3.58;;;6.90;42.50;;;;;;4993113;28;20167;-50
2022/12/28 00:06:22;;;;;;;6.13;3.65;;;6.90;42.40;;;;;;4993140;28;20222;-50
2022/12/28 00:08:48;;;;;;;5.50;2.90;;;6.90;43.10;;;;;;4993600;28;20174;-50
2022/12/28 00:11:19;;;;;;;4.80;3.28;;;7.00;42.90;;;;;;4993139;28;20253;-50
2022/12/28 00:13:45;;;;;;;12.13;3.17;;;7.00;42.70;;;;;;4993245;28;20521;-50
2022/12/28 00:16:23;;;;;;;7.33;5.60;;;7.00;42.60;;;;;;4993108;28;20186;-50
2022/12/28 00:18:48;;;;;;;5.85;2.97;;;7.00;42.60;;;;;;4993098;28;20397;-50
2022/12/28 00:21:14;;;;;;;6.70;3.23;;;7.00;42.40;;;;;;4992905;28;20269;-50
2022/12/28 00:23:40;;;;;;;6.07;2.10;;;7.00;42.50;;;;;;4992854;28;20719;-49
2022/12/28 00:26:11;;;;;;;4.77;1.87;;;7.10;43.00;;;;;;4992858;28;20971;-49
2022/12/28 00:28:37;;;;;;;6.78;2.35;;;7.10;43.20;;;;;;4992996;28;20258;-50
2022/12/28 00:31:03;;;;;;;2.20;1.73;;;7.20;43.30;;;;;;4992834;28;20657;-50
2022/12/28 00:33:29;;;;;;;7.00;1.70;;;7.30;43.00;;;;;;4992734;28;20179;-50
2022/12/28 00:35:57;;;;;;;2.85;1.00;;;7.40;42.90;;;;;;4992958;28;20795;-50
2022/12/28 00:38:23;;;;;;;2.17;1.17;;;7.40;42.70;;;;;;4992768;28;20171;-50
2022/12/28 00:40:49;;;;;;;8.68;1.83;;;7.60;42.60;;;;;;4992656;28;20684;-50
2022/12/28 00:43:15;;;;;;;5.40;2.87;;;7.70;42.30;;;;;;4992534;28;20175;-50
2022/12/28 00:45:47;;;;;;;6.60;2.17;;;7.80;42.00;;;;;;4992679;28;20896;-50
2022/12/28 00:48:14;;;;;;;6.45;2.88;;;7.80;41.80;;;;;;4992620;28;20415;-50
2022/12/28 00:50:40;;;;;;;8.82;4.30;;;7.90;41.70;;;;;;4992442;28;20250;-50
2022/12/28 00:53:07;;;;;;;10.50;4.88;;;8.60;41.80;;;;;;4992340;28;20174;-50
2022/12/28 00:55:34;;;;;;;8.70;4.40;;;7.90;41.50;;;;;;4992607;28;20178;-50
2022/12/28 00:58:01;;;;;;;5.40;2.65;;;7.80;41.60;;;;;;4992548;28;20171;-50
2022/12/28 01:00:27;;;;;;;3.45;2.17;;;7.70;41.50;;;;;;4992426;28;20708;-50
2022/12/28 01:02:53;;;;;;;3.25;2.20;;;7.70;41.70;;;;;;4992180;28;20233;-50
2022/12/28 01:05:20;;;;;;;2.95;1.95;;;7.70;41.70;;;;;;4992575;28;20246;-50
2022/12/28 01:07:46;;;;;;;3.67;2.15;;;7.70;41.60;;;;;;4992545;28;20225;-49
2022/12/28 01:10:12;;;;;;;3.87;2.23;;;7.70;41.70;;;;;;4992440;28;20199;-50
2022/12/28 01:12:38;;;;;;;3.67;2.75;;;7.60;41.60;;;;;;4996201;28;20637;-50
2022/12/28 01:15:05;;;;;;;5.13;2.97;;;7.60;41.60;;;;;;4996522;28;20190;-51
2022/12/28 01:17:31;;;;;;;3.55;2.35;;;7.60;41.50;;;;;;4978827;28;20265;-50
2022/12/28 01:19:59;;;;;;;4.27;2.23;;;7.50;41.50;;;;;;4996289;28;20720;-50
2022/12/28 01:22:25;;;;;;;3.30;1.85;;;7.50;41.70;;;;;;4996085;28;20410;-50
2022/12/28 01:24:51;;;;;;;5.15;2.70;;;7.50;41.60;;;;;;4996225;28;20242;-50
2022/12/28 01:27:17;;;;;;;2.23;1.60;;;7.40;41.50;;;;;;4996225;28;20199;-50
2022/12/28 01:29:43;;;;;;;5.47;2.37;;;7.40;41.60;;;;;;4996117;28;20218;-49
2022/12/28 01:32:08;;;;;;;4.50;2.53;;;7.30;41.50;;;;;;4995907;28;20437;-50
2022/12/28 01:34:34;;;;;;;6.10;2.97;;;7.30;41.60;;;;;;4996125;28;20313;-49
2022/12/28 01:37:00;;;;;;;3.93;2.00;;;7.20;41.60;;;;;;4996209;28;20191;-49
2022/12/28 01:39:26;;;;;;;5.83;2.03;;;7.10;41.90;;;;;;4996261;28;20227;-50
2022/12/28 01:41:51;;;;;;;6.30;2.20;;;7.10;41.90;;;;;;4996265;28;20242;-50
2022/12/28 01:44:23;;;;;;;5.80;2.50;;;7.10;42.10;;;;;;4995827;28;20501;-50
2022/12/28 01:46:54;;;;;;;3.53;2.15;;;7.10;42.00;;;;;;4995696;28;20195;-49
2022/12/28 01:49:33;;;;;;;2.67;1.90;;;7.00;41.90;;;;;;4995596;28;20173;-50
2022/12/28 01:52:23;;;;;;;9.38;3.08;;;7.00;41.80;;;;;;4995611;28;20168;-50
2022/12/28 01:55:01;;;;;;;3.60;2.20;;;7.00;42.50;;;;;;4995770;28;20533;-50
2022/12/28 01:57:31;;;;;;;7.70;2.55;;;7.00;41.70;;;;;;4995819;28;20533;-50
2022/12/28 02:00:05;;;;;;;2.45;2.05;;;6.90;41.80;;;;;;4995598;28;20187;-50
2022/12/28 02:02:31;;;;;;;3.25;2.10;;;6.90;41.90;;;;;;4995435;28;20653;-50
2022/12/28 02:04:58;;;;;;;3.42;2.35;;;6.80;41.90;;;;;;4995521;28;20175;-50
2022/12/28 02:07:47;;;;;;;3.10;2.38;;;6.80;41.90;;;;;;4995425;28;20277;-50
2022/12/28 02:10:15;;;;;;;3.40;2.03;;;6.70;41.80;;;;;;4995415;28;20195;-50
2022/12/28 02:12:41;;;;;;;5.53;2.55;;;6.70;41.80;;;;;;4995257;28;20171;-50
2022/12/28 02:15:08;;;;;;;4.45;2.53;;;6.70;41.70;;;;;;4995436;28;20573;-50
2022/12/28 02:17:33;;;;;;;3.60;2.28;;;6.60;41.80;;;;;;4995564;28;20253;-50
2022/12/28 02:19:59;;;;;;;6.63;2.50;;;6.60;42.00;;;;;;4995176;28;20222;-49
2022/12/28 02:23:04;;;;;;;4.60;2.92;;;6.60;41.90;;;;;;4994851;28;20493;-50
2022/12/28 02:26:16;;;;;;;5.75;2.58;;;6.60;41.80;;;;;;4995298;28;20522;-50
2022/12/28 02:29:06;;;;;;;4.50;2.50;;;6.50;41.90;;;;;;4990352;28;20195;-50
2022/12/28 02:31:55;;;;;;;4.45;2.60;;;6.50;41.90;;;;;;4995228;28;20171;-50
2022/12/28 02:34:24;;;;;;;4.13;2.60;;;6.40;41.90;;;;;;4994989;28;20171;-50
2022/12/28 02:36:58;;;;;;;4.68;2.83;;;6.30;42.00;;;;;;4994911;28;20171;-50
2022/12/28 02:39:37;;;;;;;3.35;2.75;;;6.20;41.90;;;;;;4995077;28;20572;-49
2022/12/28 02:42:05;;;;;;;4.13;2.85;;;6.20;42.10;;;;;;4994773;28;20183;-50
2022/12/28 02:50:06;;;;;;;3.67;2.50;;;6.20;42.40;;;;;;4994535;28;20261;-50
2022/12/28 02:52:43;;;;;;;7.70;3.05;;;6.20;42.70;;;;;;4995208;28;20173;-49
2022/12/28 02:58:21;;;;;;;7.75;3.40;;;6.20;43.00;;;;;;4994630;28;20310;-49
2022/12/28 03:01:12;;;;;;;6.38;3.72;;;6.30;43.00;;;;;;4994783;28;20665;-50
2022/12/28 03:04:09;;;;;;;5.53;3.13;;;6.40;42.90;;;;;;4994794;28;20175;-49
2022/12/28 03:09:51;;;;;;;14.73;4.88;;;6.40;42.60;;;;;;4985846;28;20703;-50
2022/12/28 03:12:28;;;;;;;6.00;3.05;;;6.40;42.70;;;;;;4994029;28;20182;-49
2022/12/28 03:15:09;;;;;;;5.40;3.08;;;6.40;42.50;;;;;;4994362;28;20167;-49
2022/12/28 03:31:31;;;;;;;6.10;3.42;;;6.20;42.60;;;;;;4994038;28;20553;-49
2022/12/28 03:34:08;;;;;;;7.22;3.60;;;6.20;42.70;;;;;;4993197;28;20175;-49
2022/12/28 03:37:03;;;;;;;7.20;3.50;;;6.30;42.80;;;;;;4993949;28;20241;-50
2022/12/28 03:39:31;;;;;;;7.00;3.45;;;6.30;42.70;;;;;;4993755;28;20207;-49
2022/12/28 03:45:04;;;;;;;10.77;4.72;;;6.30;42.70;;;;;;4994012;28;20194;-50
2022/12/28 03:47:32;;;;;;;6.35;3.60;;;6.20;42.60;;;;;;4993575;28;20195;-49
2022/12/28 03:49:58;;;;;;;6.38;3.53;;;6.30;42.90;;;;;;4993409;28;20207;-50
2022/12/28 03:52:25;;;;;;;5.88;3.70;;;6.20;42.80;;;;;;4993405;28;20653;-49
2022/12/28 03:54:51;;;;;;;5.40;3.72;;;6.20;42.80;;;;;;4993510;28;20206;-50
2022/12/28 03:57:18;;;;;;;5.10;3.87;;;6.30;43.10;;;;;;4993447;28;20195;-49
2022/12/28 03:59:44;;;;;;;4.55;3.90;;;6.30;43.30;;;;;;4993445;28;20187;-50
2022/12/28 04:02:09;;;;;;;6.27;3.20;;;6.30;43.30;;;;;;4993203;28;20229;-50
2022/12/28 04:04:35;;;;;;;5.67;3.93;;;6.40;43.20;;;;;;4993362;28;20431;-50
2022/12/28 04:07:01;;;;;;;5.27;3.00;;;6.40;43.20;;;;;;4993278;28;20615;-49
2022/12/28 04:09:28;;;;;;;10.13;3.97;;;6.50;43.40;;;;;;4993276;28;20693;-49
2022/12/28 04:11:54;;;;;;;7.13;3.15;;;6.50;43.20;;;;;;4993026;28;20167;-49
2022/12/28 04:14:20;;;;;;;5.07;3.50;;;6.50;43.10;;;;;;4993121;28;20190;-50
2022/12/28 04:16:45;;;;;;;4.80;3.40;;;6.60;43.00;;;;;;4993035;28;20414;-50
2022/12/28 04:19:11;;;;;;;4.23;2.73;;;6.60;42.90;;;;;;4993102;28;20584;-49
2022/12/28 04:21:37;;;;;;;4.87;2.90;;;6.60;42.80;;;;;;4993098;28;20182;-49
2022/12/28 04:24:03;;;;;;;3.60;2.60;;;6.60;42.70;;;;;;4992863;28;20234;-49
2022/12/28 04:26:28;;;;;;;2.90;2.57;;;6.60;42.60;;;;;;4992906;28;20293;-50
2022/12/28 04:28:59;;;;;;;5.47;2.83;;;6.60;42.50;;;;;;4993026;28;20167;-50
2022/12/28 04:31:25;;;;;;;3.40;3.05;;;6.60;42.40;;;;;;4992691;28;20685;-50
2022/12/28 04:33:51;;;;;;;5.23;3.07;;;6.60;42.50;;;;;;4992631;28;20186;-50
2022/12/28 04:36:16;;;;;;;4.80;3.57;;;6.70;42.60;;;;;;4992908;28;20410;-49
2022/12/28 04:38:42;;;;;;;7.10;3.07;;;6.70;42.60;;;;;;4992726;28;20207;-49
2022/12/28 04:41:09;;;;;;;7.07;3.33;;;6.70;42.60;;;;;;4992642;28;20620;-49
2022/12/28 04:43:35;;;;;;;5.75;2.70;;;6.80;42.50;;;;;;4992498;28;20175;-50
2022/12/28 04:46:06;;;;;;;5.78;2.67;;;6.80;42.50;;;;;;4991653;28;20183;-50
2022/12/28 04:48:33;;;;;;;7.88;3.05;;;6.90;43.30;;;;;;4992832;28;20167;-50
2022/12/28 04:51:06;;;;;;;3.92;2.35;;;6.90;42.70;;;;;;4992469;28;20215;-50
2022/12/28 04:53:35;;;;;;;3.88;2.65;;;6.90;43.50;;;;;;4992537;28;20536;-50
2022/12/28 04:56:06;;;;;;;3.65;2.10;;;6.90;42.70;;;;;;4992734;28;20226;-49
2022/12/28 04:58:32;;;;;;;5.55;2.47;;;7.00;42.50;;;;;;4992472;28;20174;-49
2022/12/28 05:01:03;;;;;;;4.95;2.63;;;7.10;42.50;;;;;;4992573;28;20282;-49
2022/12/28 05:03:28;;;;;;;3.20;2.55;;;7.20;42.40;;;;;;4992438;28;20197;-49
2022/12/28 05:05:58;;;;;;;5.07;2.73;;;7.20;42.30;;;;;;4992516;28;20199;-49
2022/12/28 05:08:23;;;;;;;5.35;2.90;;;7.10;42.40;;;;;;4992620;28;20163;-49
2022/12/28 05:10:49;;;;;;;3.60;2.30;;;7.20;42.20;;;;;;4993093;28;20226;-48
2022/12/28 05:13:15;;;;;;;3.23;2.40;;;7.30;42.20;;;;;;4992611;28;20703;-49
2022/12/28 05:15:41;;;;;;;4.93;2.23;;;7.30;42.20;;;;;;4992482;28;20254;-49
2022/12/28 05:18:06;;;;;;;4.50;3.07;;;7.30;42.10;;;;;;4992805;28;20164;-49
2022/12/28 05:20:32;;;;;;;4.30;2.40;;;7.40;42.10;;;;;;4992410;28;20194;-49
2022/12/28 05:22:58;;;;;;;4.13;2.73;;;7.40;41.80;;;;;;4990954;28;20183;-49
2022/12/28 05:25:23;;;;;;;3.30;2.30;;;7.50;41.70;;;;;;4992378;28;20537;-49
2022/12/28 05:27:49;;;;;;;9.63;3.00;;;7.50;41.60;;;;;;4992322;28;20282;-49
2022/12/28 05:30:15;;;;;;;4.73;3.83;;;7.60;41.60;;;;;;4992335;28;20266;-49
2022/12/28 05:32:40;;;;;;;8.73;2.77;;;7.50;41.70;;;;;;4992222;28;20584;-49
2022/12/28 05:35:07;;;;;;;5.50;2.63;;;7.60;41.80;;;;;;4992270;28;20711;-49
2022/12/28 05:37:32;;;;;;;3.72;2.40;;;7.60;41.80;;;;;;4992366;28;20171;-49
2022/12/28 05:39:58;;;;;;;6.63;3.10;;;7.60;41.90;;;;;;4992193;28;20249;-49
2022/12/28 05:42:24;;;;;;;4.33;3.20;;;7.60;41.90;;;;;;4992003;28;20660;-49
2022/12/28 05:44:50;;;;;;;3.70;2.50;;;7.70;41.70;;;;;;4992231;28;20168;-50
2022/12/28 05:47:15;;;;;;;3.20;2.63;;;7.70;41.60;;;;;;4992205;28;20450;-49
2022/12/28 05:49:41;;;;;;;4.50;2.80;;;7.70;41.60;;;;;;4992231;28;20282;-49
2022/12/28 05:52:07;;;;;;;5.23;2.67;;;7.80;41.60;;;;;;4992007;28;20155;-49
2022/12/28 05:54:32;;;;;;;5.27;3.03;;;7.80;41.50;;;;;;4992152;28;20637;-49
2022/12/28 05:56:58;;;;;;;5.27;3.20;;;7.80;41.50;;;;;;4993255;28;20179;-50
2022/12/28 05:59:24;;;;;;;6.90;4.10;;;7.80;41.50;;;;;;4995735;28;20200;-50
2022/12/28 06:01:49;;;;;;;4.40;3.10;;;7.90;41.50;;;;;;4995675;28;20704;-49
2022/12/28 06:04:19;;;;;;;4.67;3.10;;;7.80;41.40;;;;;;4995685;28;20174;-50
2022/12/28 06:06:47;;;;;;;4.50;2.88;;;7.90;41.50;;;;;;4995623;28;20203;-49
2022/12/28 06:09:13;;;;;;;4.97;3.15;;;7.80;41.40;;;;;;4995474;28;20168;-49
2022/12/28 06:11:39;;;;;;;5.90;3.00;;;7.90;41.50;;;;;;4995686;28;20171;-50
2022/12/28 06:14:06;;;;;;;6.05;3.25;;;7.90;41.40;;;;;;4995257;28;20634;-49
2022/12/28 06:16:38;;;;;;;5.00;2.35;;;7.90;41.50;;;;;;4995453;28;20183;-49
2022/12/28 06:19:09;;;;;;;5.90;3.72;;;7.90;41.50;;;;;;4995415;28;20182;-50
2022/12/28 06:21:37;;;;;;;5.00;3.15;;;7.90;41.40;;;;;;4995405;28;20159;-49
2022/12/28 06:24:05;;;;;;;7.00;3.50;;;8.00;41.50;;;;;;4995111;28;20202;-50
2022/12/28 06:26:32;;;;;;;3.78;2.53;;;8.00;41.30;;;;;;4995127;28;20258;-49
2022/12/28 06:29:00;;;;;;;3.95;2.60;;;8.00;41.30;;;;;;4995174;28;20646;-49
2022/12/28 06:31:29;;;;;;;8.27;2.63;;;8.00;41.00;;;;;;4995216;28;20192;-49
2022/12/28 06:33:57;;;;;;;4.40;2.67;;;8.00;41.10;;;;;;4994998;28;20167;-50
2022/12/28 06:36:28;;;;;;;5.60;2.78;;;8.10;41.00;;;;;;4995058;28;20302;-49
2022/12/28 06:38:56;;;;;;;2.90;2.10;;;8.10;40.90;;;;;;4995121;28;20156;-49
2022/12/28 06:41:23;;;;;;;5.55;2.92;;;8.10;40.80;;;;;;4994957;28;20218;-49
2022/12/28 06:43:50;;;;;;;4.45;2.72;;;8.10;40.80;;;;;;4994813;28;20295;-49
2022/12/28 06:46:19;;;;;;;4.43;2.50;;;8.20;40.80;;;;;;4994929;28;20730;-49
2022/12/28 06:48:45;;;;;;;4.72;2.70;;;8.20;40.80;;;;;;4995020;28;20163;-49
2022/12/28 06:51:14;;;;;;;10.05;3.63;;;8.20;40.90;;;;;;4995149;28;20262;-49
2022/12/28 06:53:39;;;;;;;4.43;2.00;;;8.20;40.80;;;;;;4994578;28;20222;-49
2022/12/28 06:56:27;;;;;;;2.50;2.00;;;8.20;40.80;;;;;;4994880;28;20180;-49
2022/12/28 06:58:53;;;;;;;5.22;2.22;;;8.30;40.90;;;;;;4994697;28;20250;-49
2022/12/28 07:01:28;;;;;;;6.63;2.80;;;8.30;40.80;;;;;;4994795;28;20637;-50
2022/12/28 07:03:57;;;;;;;3.70;2.45;;;8.40;40.80;;;;;;4994489;28;20226;-49
2022/12/28 07:06:25;;;;;;;3.97;2.72;;;8.40;40.80;;;;;;4994532;28;20669;-49
2022/12/28 07:08:57;;;;;;;4.97;2.83;;;8.40;40.70;;;;;;4993550;28;20266;-49
2022/12/28 07:11:23;;;;;;;3.58;2.50;;;8.40;40.50;;;;;;4994464;28;20187;-49
2022/12/28 07:13:48;;;;;;;3.40;2.37;;;8.40;40.20;;;;;;4992836;28;20179;-49
2022/12/28 07:16:19;;;;;;;3.07;2.40;;;8.40;40.30;;;;;;4994655;28;20232;-49
2022/12/28 07:18:46;;;;;;;4.38;2.47;;;8.40;40.60;;;;;;4994362;28;20255;-50
2022/12/28 07:21:25;;;;;;;5.38;2.25;;;8.40;40.50;;;;;;4994279;28;20196;-49
2022/12/28 07:23:52;;;;;;;3.80;2.58;;;8.50;40.40;;;;;;4994108;28;20155;-49
2022/12/28 07:26:21;;;;;;;3.58;1.92;;;8.50;40.20;;;;;;4994014;28;20690;-50
2022/12/28 07:28:49;;;;;;;3.53;2.40;;;8.50;40.30;;;;;;4994014;28;20174;-49
2022/12/28 07:31:18;;;;;;;4.75;2.80;;;8.60;40.20;;;;;;4993983;28;20196;-50
2022/12/28 07:33:45;;;;;;;3.85;2.53;;;8.60;40.30;;;;;;4993889;28;20533;-49
2022/12/28 07:36:13;;;;;;;5.78;2.80;;;8.60;40.20;;;;;;4994070;28;20180;-49
2022/12/28 07:38:39;;;;;;;3.38;2.25;;;8.60;40.00;;;;;;4993922;28;20672;-49
2022/12/28 07:41:14;;;;;;;3.83;2.22;;;8.70;40.10;;;;;;4993826;28;20198;-50
2022/12/28 07:43:40;;;;;;;6.40;2.38;;;8.70;40.20;;;;;;4993633;28;20171;-49
2022/12/28 07:46:09;;;;;;;4.05;2.00;;;8.80;40.10;;;;;;4993794;28;20543;-49
2022/12/28 07:48:36;;;;;;;5.13;2.55;;;8.80;40.00;;;;;;4993718;28;20164;-49
2022/12/28 07:51:11;;;;;;;3.92;2.00;;;8.80;40.00;;;;;;4993538;28;20215;-49
2022/12/28 07:53:38;;;;;;;3.85;2.35;;;8.90;40.10;;;;;;4993474;28;20646;-51
2022/12/28 07:56:04;;;;;;;8.35;2.55;;;8.90;40.00;;;;;;4993622;28;20180;-49
2022/12/28 07:58:29;;;;;;;3.70;2.15;;;8.90;40.00;;;;;;4993569;28;20528;-50
2022/12/28 08:01:06;;;;;;;5.37;2.50;;;8.90;40.10;;;;;;4993428;28;20266;-50
2022/12/28 08:03:33;;;;;;;2.80;2.50;;;9.00;40.00;;;;;;4993259;28;20632;-50
2022/12/28 08:06:06;;;;;;;6.65;2.50;;;9.00;39.90;;;;;;4992148;28;20264;-50
2022/12/28 08:08:41;;;;;;;2.72;2.28;;;9.00;40.00;;;;;;4993492;28;20180;-49
2022/12/28 08:11:10;;;;;;;3.20;2.20;;;9.10;40.10;;;;;;4993279;28;20198;-50
2022/12/28 08:13:38;;;;;;;4.90;2.75;;;9.10;40.10;;;;;;4993036;28;20202;-50
2022/12/28 08:16:05;;;;;;;6.68;2.55;;;9.10;40.10;;;;;;4993301;28;20223;-50
2022/12/28 08:18:31;;;;;;;5.22;2.08;;;9.10;40.10;;;;;;4993169;28;20593;-50
2022/12/28 08:21:02;;;;;;;2.25;1.30;;;9.10;40.20;;;;;;4992914;28;20249;-50
2022/12/28 08:23:29;;;;;;;5.25;2.05;;;9.10;40.30;;;;;;4992922;28;20715;-49
2022/12/28 08:25:55;;;;;;;3.05;1.98;;;9.20;40.20;;;;;;4993050;28;20257;-50
2022/12/28 08:28:20;;;;;;;2.03;1.50;;;9.30;40.40;;;;;;4993007;28;20300;-49
2022/12/28 08:30:46;;;;;;;3.50;1.53;;;9.30;39.80;;;;;;4993237;28;20542;-50
2022/12/28 08:33:12;;;;;;;2.60;1.83;;;9.40;39.90;;;;;;4992972;28;20181;-49
2022/12/28 08:35:38;;;;;;;2.53;1.47;;;9.50;40.00;;;;;;4992915;28;20168;-50
2022/12/28 08:38:03;;;;;;;3.30;2.00;;;9.50;40.20;;;;;;4992856;28;20651;-50
2022/12/28 08:40:29;;;;;;;2.80;1.83;;;9.60;39.90;;;;;;4993017;28;20196;-50
2022/12/28 08:43:01;;;;;;;6.67;2.03;;;9.70;40.10;;;;;;4992612;28;20657;-49
2022/12/28 08:45:27;;;;;;;5.57;2.65;;;9.80;40.10;;;;;;4992146;28;20676;-50
2022/12/28 08:47:53;;;;;;;3.95;3.00;;;9.80;39.90;;;;;;4992738;28;20663;-50
2022/12/28 08:50:19;;;;;;;4.17;2.73;;;9.90;39.90;;;;;;4992754;28;20225;-50
2022/12/28 08:52:45;;;;;;;4.10;2.28;;;10.00;39.80;;;;;;4992472;28;20174;-50
2022/12/28 08:55:10;;;;;;;5.90;2.43;;;10.10;39.50;;;;;;4992624;28;20207;-50
2022/12/28 08:57:36;;;;;;;3.37;2.57;;;10.10;39.30;;;;;;4992602;28;20254;-50
2022/12/28 09:00:04;;;;;;;3.50;1.50;;;10.20;39.60;;;;;;4992569;28;20217;-50
2022/12/28 09:02:30;;;;;;;4.22;3.10;;;10.30;39.60;;;;;;4992433;28;20181;-50
2022/12/28 09:04:56;;;;;;;4.37;2.70;;;10.30;39.60;;;;;;4992642;28;20545;-50
2022/12/28 09:07:21;;;;;;;4.17;3.00;;;10.40;39.50;;;;;;4992427;28;20210;-50
2022/12/28 09:09:47;;;;;;;4.93;2.57;;;10.40;39.30;;;;;;4992512;28;20753;-50
2022/12/28 09:12:13;;;;;;;4.33;2.17;;;10.50;39.00;;;;;;4992272;28;20171;-50
2022/12/28 09:14:38;;;;;;;5.93;2.50;;;10.40;39.10;;;;;;4992446;28;20537;-50
2022/12/28 09:17:04;;;;;;;7.57;3.13;;;10.50;39.30;;;;;;4992354;28;20226;-50
2022/12/28 09:19:30;;;;;;;4.63;2.20;;;9.90;39.20;;;;;;4991175;28;20203;-50
2022/12/28 09:21:56;;;;;;;4.13;2.40;;;10.50;39.30;;;;;;4990960;28;20175;-50
2022/12/28 09:24:22;;;;;;;4.43;2.63;;;10.50;39.30;;;;;;4992372;28;20174;-50
2022/12/28 09:26:51;;;;;;;2.67;2.00;;;10.60;39.10;;;;;;4992336;28;20191;-49
2022/12/28 09:29:17;;;;;;;2.90;1.90;;;10.70;39.20;;;;;;4992182;28;20261;-50
2022/12/28 09:31:43;;;;;;;3.10;2.33;;;10.80;39.40;;;;;;4993026;28;20246;-50
2022/12/28 09:34:12;;;;;;;5.55;3.40;;;10.90;38.90;;;;;;4996066;28;20213;-50
2022/12/28 09:36:42;;;;;;;3.38;2.10;;;10.90;39.10;;;;;;4996238;28;20655;-50
2022/12/28 09:39:15;;;;;;;4.28;2.70;;;11.10;38.80;;;;;;4996026;28;20171;-50
2022/12/28 09:41:55;;;;;;;4.43;2.28;;;11.10;39.10;;;;;;4996075;28;20175;-50
2022/12/28 09:44:54;;;;;;;5.03;2.58;;;11.20;38.90;;;;;;4996020;28;20254;-50
2022/12/28 09:47:29;;;;;;;4.35;2.60;;;11.20;39.00;;;;;;4996017;28;20203;-50
2022/12/28 09:50:23;;;;;;;8.25;2.90;;;11.30;39.00;;;;;;4995762;28;20210;-50
2022/12/28 09:53:05;;;;;;;5.72;3.42;;;11.30;38.90;;;;;;4995663;28;20306;-50
2022/12/28 09:55:37;;;;;;;4.25;2.47;;;11.20;38.90;;;;;;4995847;28;20177;-50
2022/12/28 09:58:09;;;;;;;3.65;2.45;;;11.30;39.20;;;;;;4995789;28;20564;-50
2022/12/28 10:00:49;;;;;;;3.65;2.72;;;11.30;39.00;;;;;;4995744;28;20202;-50
2022/12/28 10:03:22;;;;;;;7.07;3.40;;;11.40;39.00;;;;;;4995682;28;20238;-50
2022/12/28 10:05:50;;;;;;;5.03;3.03;;;11.50;39.00;;;;;;4995672;28;20175;-51
2022/12/28 10:08:19;;;;;;;7.15;3.28;;;11.50;39.10;;;;;;4994264;28;20260;-50
2022/12/28 10:10:46;;;;;;;6.40;2.58;;;11.60;39.10;;;;;;4995390;28;20199;-50
2022/12/28 10:13:24;;;;;;;4.22;2.55;;;11.60;39.00;;;;;;4995257;28;20186;-50
2022/12/28 10:15:51;;;;;;;5.20;3.60;;;11.60;38.90;;;;;;4995411;28;20167;-50
2022/12/28 10:18:27;;;;;;;7.40;3.75;;;11.60;38.90;;;;;;4996115;28;20574;-50
2022/12/28 10:20:54;;;;;;;7.70;3.85;;;11.50;39.00;;;;;;4995222;28;20273;-50
2022/12/28 10:23:26;;;;;;;5.18;3.40;;;11.50;39.20;;;;;;4994994;28;20186;-50
2022/12/28 10:25:54;;;;;;;5.05;3.25;;;11.50;39.20;;;;;;4995247;28;20193;-50
2022/12/28 10:28:24;;;;;;;8.98;4.30;;;11.50;39.10;;;;;;4995118;28;20250;-50
2022/12/28 10:31:05;;;;;;;4.82;3.30;;;11.60;38.90;;;;;;4995337;28;20600;-50
2022/12/28 10:33:31;;;;;;;8.15;4.78;;;11.60;39.00;;;;;;4994938;28;20178;-50
2022/12/28 10:35:58;;;;;;;8.20;4.40;;;11.60;39.10;;;;;;4995108;28;20246;-50
2022/12/28 10:38:30;;;;;;;5.00;3.40;;;11.70;39.30;;;;;;4995068;28;20179;-50
2022/12/28 10:41:00;;;;;;;6.00;4.60;;;11.70;39.10;;;;;;4994940;28;20195;-50
2022/12/28 10:43:29;;;;;;;6.57;4.18;;;11.80;39.20;;;;;;4994678;28;20171;-50
2022/12/28 10:45:57;;;;;;;6.28;4.75;;;11.90;39.20;;;;;;4995265;28;20199;-50
2022/12/28 10:48:36;;;;;;;8.80;3.78;;;12.00;39.10;;;;;;4994829;28;20199;-50
2022/12/28 10:51:17;;;;;;;6.68;4.10;;;12.10;39.00;;;;;;4994884;28;20203;-50
2022/12/28 10:53:53;;;;;;;7.35;3.15;;;12.10;39.10;;;;;;4994578;28;20171;-52
2022/12/28 10:56:24;;;;;;;6.35;3.70;;;12.10;39.20;;;;;;4994937;28;20160;-50
2022/12/28 10:59:13;;;;;;;7.80;3.30;;;12.20;39.30;;;;;;4994562;28;20167;-50
2022/12/28 11:01:40;;;;;;;5.95;3.63;;;12.20;39.50;;;;;;4994537;28;20263;-50
2022/12/28 11:04:23;;;;;;;2.10;1.20;;;12.20;39.00;;;;;;4994563;28;20175;-50
2022/12/28 11:06:52;;;;;;;4.93;1.27;;;12.20;38.70;;;;;;4993242;28;20576;-51
2022/12/28 11:09:23;;;;;;;2.25;1.17;;;12.20;38.50;;;;;;4994363;28;20220;-50
2022/12/28 11:11:51;;;;;;;1.55;0.93;;;12.30;37.90;;;;;;4994297;28;20251;-50
2022/12/28 11:14:34;;;;;;;1.98;1.15;;;12.40;38.40;;;;;;4994305;28;20167;-50
2022/12/28 11:17:27;;;;;;;2.72;1.50;;;12.50;38.50;;;;;;4994343;28;20165;-50
2022/12/28 11:20:17;;;;;;;2.25;1.20;;;12.70;38.40;;;;;;5006607;23;20230;-51
2022/12/28 11:22:43;;;;;;;4.93;1.67;;;12.80;38.40;;;;;;4993587;28;20186;-51
2022/12/28 11:25:17;;;;;;;6.60;1.50;;;12.80;38.80;;;;;;4994125;28;20182;-52
2022/12/28 11:27:46;;;;;;;3.22;1.23;;;12.90;37.80;;;;;;4994081;28;20868;-51
2022/12/28 11:30:17;;;;;;;7.00;1.98;;;13.00;37.60;;;;;;4994185;28;20203;-51
2022/12/28 11:32:51;;;;;;;2.50;1.25;;;13.00;37.50;;;;;;4993934;28;20534;-51
2022/12/28 11:35:21;;;;;;;3.25;2.15;;;13.10;37.70;;;;;;4994030;28;20156;-52
2022/12/28 11:38:02;;;;;;;3.05;1.30;;;13.10;37.90;;;;;;4994163;28;20255;-51
2022/12/28 11:40:43;;;;;;;4.07;2.13;;;13.30;38.00;;;;;;4993996;28;20195;-51
2022/12/28 11:43:27;;;;;;;1.60;1.23;;;13.30;38.10;;;;;;4993735;28;20179;-52
2022/12/28 11:45:54;;;;;;;4.68;1.60;;;13.30;38.00;;;;;;4993957;28;20176;-51
2022/12/28 11:48:46;;;;;;;4.25;1.67;;;13.20;37.00;;;;;;4993631;28;20196;-50
2022/12/28 11:51:24;;;;;;;3.78;1.70;;;13.30;37.50;;;;;;4993943;28;20179;-50
2022/12/28 11:53:53;;;;;;;3.17;1.80;;;13.30;37.70;;;;;;4993449;28;20684;-50
2022/12/28 11:56:23;;;;;;;2.03;1.10;;;13.40;37.90;;;;;;4993477;28;20183;-51
2022/12/28 11:58:57;;;;;;;6.10;1.20;;;13.40;37.00;;;;;;4993567;28;20167;-51
2022/12/28 12:01:26;;;;;;;2.90;1.23;;;13.40;37.00;;;;;;4993691;28;20174;-51
2022/12/28 12:03:58;;;;;;;2.28;1.23;;;13.40;36.00;;;;;;4993398;28;20195;-51
2022/12/28 12:06:52;;;;;;;2.67;1.50;;;13.30;36.40;;;;;;4993593;28;20202;-51
2022/12/28 12:09:24;;;;;;;5.18;1.60;;;13.30;36.30;;;;;;4980353;28;20203;-51
2022/12/28 12:11:51;;;;;;;5.40;1.55;;;13.30;36.60;;;;;;4993132;28;20175;-51
2022/12/28 12:14:35;;;;;;;3.92;1.10;;;13.20;36.70;;;;;;4993177;28;20172;-50
2022/12/28 12:17:22;;;;;;;2.83;1.38;;;13.30;36.10;;;;;;4993324;28;20517;-50
2022/12/28 12:19:52;;;;;;;1.85;1.45;;;13.30;36.60;;;;;;4992966;28;20225;-51
2022/12/28 12:22:27;;;;;;;2.25;1.75;;;13.30;36.20;;;;;;4992898;28;20186;-50
2022/12/28 12:35:07;;;;;;;3.97;2.90;;;13.40;35.90;;;;;;4993087;28;20707;-51
2022/12/28 12:37:37;;;;;;;2.70;1.30;;;13.40;36.00;;;;;;4992726;28;20181;-51
2022/12/28 12:40:08;;;;;;;9.57;8.90;;;13.50;36.50;;;;;;4992899;28;20865;-52
2022/12/28 12:42:56;;;;;;;4.47;4.07;;;13.50;35.80;;;;;;4993154;28;20218;-51
2022/12/28 12:45:50;;;;;;;7.53;5.03;;;13.50;35.70;;;;;;4992729;28;20171;-52
2022/12/28 12:48:42;;;;;;;4.65;3.33;;;13.50;35.30;;;;;;4992789;28;20214;-51
2022/12/28 12:51:10;;;;;;;6.60;1.92;;;13.50;35.80;;;;;;4962081;28;20186;-52
2022/12/28 12:53:58;;;;;;;5.03;2.90;;;13.50;35.50;;;;;;4992405;28;20274;-51
2022/12/28 12:56:39;;;;;;;1.98;1.70;;;13.50;35.50;;;;;;4992778;28;20183;-51
2022/12/28 12:59:26;;;;;;;3.13;1.70;;;13.50;35.20;;;;;;4992533;28;20676;-51
2022/12/28 13:02:16;;;;;;;2.65;1.52;;;13.50;36.10;;;;;;4992330;28;20214;-51
2022/12/28 13:04:44;;;;;;;7.55;4.38;;;13.70;35.70;;;;;;4992586;28;20330;-50
2022/12/28 13:07:21;;;;;;;2.17;1.60;;;13.70;35.10;;;;;;4991778;28;20199;-52
2022/12/28 13:09:49;;;;;;;3.17;1.67;;;13.50;34.90;;;;;;4992789;28;20230;-51
2022/12/28 13:12:17;;;;;;;5.60;2.30;;;13.60;35.40;;;;;;4992200;28;20644;-52
2022/12/28 13:14:51;;;;;;;4.43;2.85;;;13.70;35.00;;;;;;4992512;28;20179;-52
2022/12/28 13:17:20;;;;;;;3.25;1.83;;;13.70;35.40;;;;;;4992651;28;20505;-52
2022/12/28 13:19:46;;;;;;;4.13;1.35;;;13.70;35.30;;;;;;4992241;28;20301;-52
2022/12/28 13:22:28;;;;;;;2.80;1.48;;;13.70;35.10;;;;;;4992489;28;20178;-50
2022/12/28 13:24:54;;;;;;;1.58;0.88;;;13.70;35.70;;;;;;4992353;28;20186;-52
2022/12/28 13:27:21;;;;;;;2.77;1.47;;;13.70;35.10;;;;;;4992195;28;20190;-51
2022/12/28 13:29:51;;;;;;;5.13;2.40;;;13.60;34.90;;;;;;4992200;28;20315;-51
2022/12/28 13:32:24;;;;;;;2.30;1.30;;;13.60;35.50;;;;;;4992083;28;20156;-51
2022/12/28 13:34:50;;;;;;;2.40;1.58;;;13.60;35.40;;;;;;4992111;28;20178;-51
2022/12/28 13:37:17;;;;;;;2.77;1.30;;;13.70;35.80;;;;;;4992101;28;20172;-51
2022/12/28 13:39:43;;;;;;;2.58;1.60;;;13.70;35.50;;;;;;4992103;28;20199;-51
2022/12/28 13:42:50;;;;;;;8.80;3.78;;;13.80;35.50;;;;;;4992114;28;20179;-51
2022/12/28 13:45:19;;;;;;;3.00;1.20;;;13.70;35.60;;;;;;4991898;28;20218;-51
2022/12/28 13:47:49;;;;;;;4.18;2.33;;;13.60;35.80;;;;;;4992236;28;20207;-51
2022/12/28 13:50:23;;;;;;;6.63;1.98;;;13.70;35.90;;;;;;4991995;28;20215;-51